»·PEaware :: N390DT KSAN-KSEE

N390DT :: KSAN-KSEE

FLIGHT INFORMATION

Flight Status: Arrived
Operator: Privately registered:
United States
More flights under this callsign
Pilot: Raphael S. (13144)
Aircraft: CESSNA 172 SKYHAWK
(C172)
More flights by this aircraft type
Origin: KSAN San Diego Intl-Lindbergh
United States
Destination: KSEE Gillespie
United States
More flights between these airports :: More routes between these airports
Route: +MZB V66 BARET
File this flight plan on PilotEdge
Remarks:
Altitude:
(Current/Filed)
7,000ft
Speed:
(Current/Filed)
100kts
Departed: 24-Dec-16 10:02 AM
Arrived: 24-Dec-16 10:36 AM
Distance/Time
Traveled:
12nm/0:34
Distance/Time
To Go:
Arrived

Flight Plot

Page will automatically refresh every two minutes.

Flight plan parsing failed; only flown route is shown


Map Options




Map Legend


Flown Route
Filed Route
Departure Airport
Arrival Airport
Navaid (VOR, NDB)
Fix

Horizontal Profiles

Position Reports

Time Latitude Longitude Heading Altitude Ground
Speed
24-Dec-16 09:24 32.732418 -117.176639 194 20ft 0kts
24-Dec-16 09:25 32.732418 -117.176639 194 20ft 0kts
24-Dec-16 09:26 32.732418 -117.176639 194 20ft 0kts
24-Dec-16 09:27 32.732418 -117.176639 194 20ft 0kts
24-Dec-16 09:28 32.732418 -117.176639 194 20ft 0kts
24-Dec-16 09:29 32.732418 -117.176639 194 20ft 0kts
24-Dec-16 09:30 32.732418 -117.176639 194 20ft 0kts
24-Dec-16 09:31 32.732418 -117.176639 194 20ft 0kts
24-Dec-16 09:32 32.732418 -117.176639 194 20ft 0kts
24-Dec-16 09:33 32.732418 -117.176639 194 20ft 0kts
24-Dec-16 09:34 32.732418 -117.176639 194 20ft 0kts
24-Dec-16 09:35 32.732418 -117.176639 194 20ft 0kts
24-Dec-16 09:36 32.732417 -117.176639 196 20ft 0kts
24-Dec-16 09:37 32.732417 -117.176639 196 20ft 0kts
24-Dec-16 09:38 32.732417 -117.176639 196 20ft 0kts
24-Dec-16 09:39 32.732417 -117.176639 196 20ft 0kts
24-Dec-16 09:40 32.732417 -117.176639 196 20ft 0kts
24-Dec-16 09:41 32.732417 -117.176639 196 20ft 0kts
24-Dec-16 09:42 32.732417 -117.176639 196 20ft 0kts
24-Dec-16 09:43 32.732417 -117.176639 196 20ft 0kts
24-Dec-16 09:44 32.732417 -117.176639 196 20ft 0kts
24-Dec-16 09:45 32.732417 -117.176639 196 20ft 0kts
24-Dec-16 09:46 32.732417 -117.176639 196 20ft 0kts
24-Dec-16 09:47 32.732417 -117.176639 196 20ft 0kts
24-Dec-16 09:48 32.732417 -117.176639 196 20ft 0kts
24-Dec-16 09:49 32.732417 -117.176639 196 20ft 0kts
24-Dec-16 09:50 32.732383 -117.176661 217 20ft 0kts
24-Dec-16 09:51 32.731336 -117.175934 11 20ft 8kts
24-Dec-16 09:52 32.731299 -117.175794 154 20ft 3kts
24-Dec-16 09:53 32.730906 -117.175390 165 20ft 0kts
24-Dec-16 09:54 32.731677 -117.181639 287 332ft 51kts
24-Dec-16 09:55 32.744361 -117.192325 323 1543ft 62kts
24-Dec-16 09:56 32.762707 -117.203770 322 2166ft 92kts
24-Dec-16 09:57 32.786615 -117.220554 327 2091ft 102kts
24-Dec-16 09:58 32.800636 -117.208893 106 2659ft 108kts
24-Dec-16 09:59 32.792757 -117.174598 109 3628ft 109kts
24-Dec-16 10:00 32.785839 -117.138757 103 4507ft 113kts
24-Dec-16 10:01 32.778910 -117.100567 103 5013ft 131kts
24-Dec-16 10:02 32.769540 -117.058420 105 4976ft 126kts
24-Dec-16 10:03 32.759508 -117.018630 102 4970ft 125kts
24-Dec-16 10:04 32.749994 -116.979088 102 4944ft 124kts
24-Dec-16 10:05 32.741422 -116.939755 98 4930ft 119kts
24-Dec-16 10:06 32.733177 -116.901421 105 4919ft 119kts
24-Dec-16 10:07 32.721775 -116.864692 99 4891ft 118kts
24-Dec-16 10:08 32.713613 -116.827783 104 4956ft 116kts
24-Dec-16 10:09 32.696582 -116.825687 284 4972ft 97kts
24-Dec-16 10:10 32.708460 -116.849758 31 4947ft 107kts
24-Dec-16 10:11 32.704906 -116.812861 105 5053ft 122kts
24-Dec-16 10:12 32.693913 -116.773198 104 4903ft 127kts
24-Dec-16 10:13 32.704563 -116.741015 45 4993ft 106kts
24-Dec-16 10:14 32.724836 -116.714998 41 5050ft 109kts
24-Dec-16 10:15 32.746054 -116.688815 12 4977ft 108kts
24-Dec-16 10:16 32.774462 -116.679819 351 4926ft 105kts
24-Dec-16 10:17 32.778688 -116.706319 272 4907ft 103kts
24-Dec-16 10:18 32.786532 -116.743882 266 4904ft 106kts
24-Dec-16 10:19 32.791291 -116.777227 284 4707ft 105kts
24-Dec-16 10:20 32.797970 -116.804552 273 4509ft 109kts
24-Dec-16 10:21 32.805787 -116.835781 296 4140ft 94kts
24-Dec-16 10:22 32.807841 -116.863814 275 3449ft 63kts
24-Dec-16 10:23 32.810606 -116.881416 283 2860ft 66kts
24-Dec-16 10:24 32.812625 -116.903204 292 2116ft 67kts
24-Dec-16 10:25 32.818362 -116.922610 285 1575ft 57kts
24-Dec-16 10:26 32.822148 -116.942003 281 1144ft 62kts
24-Dec-16 10:27 32.825695 -116.961192 283 521ft 56kts
24-Dec-16 10:28 32.827971 -116.971798 337 391ft 4kts
24-Dec-16 10:29 32.828195 -116.971825 350 391ft 0kts
24-Dec-16 10:30 32.828203 -116.971827 350 391ft 1kts
24-Dec-16 10:31 32.828711 -116.971285 351 391ft 6kts
24-Dec-16 10:32 32.828768 -116.971143 181 391ft 0kts
24-Dec-16 10:33 32.828768 -116.971143 181 391ft 0kts
24-Dec-16 10:34 32.828768 -116.971143 181 391ft 0kts
24-Dec-16 10:35 32.828768 -116.971143 181 391ft 0kts
24-Dec-16 10:36 32.828768 -116.971143 181 391ft 0kts
24-Dec-16 10:37 32.828768 -116.971143 181 391ft 0kts
24-Dec-16 10:38 32.828768 -116.971143 181 391ft 0kts
24-Dec-16 10:39 32.828768 -116.971143 181 391ft 0kts
24-Dec-16 10:40 32.828768 -116.971143 181 391ft 0kts
24-Dec-16 10:41 32.828768 -116.971143 181 391ft 0kts
24-Dec-16 10:42 32.828768 -116.971143 181 391ft 0kts

Navigation Log

Ident Type
Flight plan parsing failed, navigation log unavailable